Airfield :
LOGIN :

Register | Disclaimer

   EN    FR    IT 

 










Legend :    VFR   Marginal VFR   IFR   Intensive IFR   Very Intensive IFR
Visi :
Ceiling :
>= 8 km
>= 3000ft
5 to 8 km
1000 to 3000 ft
1500m to 5 km
500 to 1000 ft
800 to 1500m
200 to 500 ft
< 800m
< 200 ft
Symbols :   Thunderstorms  Fog  Heavy snow  Heavy precipitations  Wind > 20 kt
SIGMETs :     Misc.  Thunderstorms  Icing  Turbulence  Mountain Waves  Volcanic Ashes






- Airport Elevation : 326 ft
- IATA code : LCG


LECO - A Coruna

CURRENT METAR :
  • 170600Z 19005KT CAVOK 05/04 Q1032 NOSIG

EXPIRED METARs :
  • 170530Z 17004KT CAVOK 05/05 Q1032 NOSIG
  • 170500Z 18004KT CAVOK 05/05 Q1032 NOSIG
  • 170430Z 17004KT CAVOK 06/05 Q1032 NOSIG
  • 170400Z AUTO 16006KT CAVOK 06/05 Q1033
  • 170330Z AUTO 18005KT CAVOK 06/05 Q1033

TAF TAF LECO
Valid from the 17 at 03:00 until the 18 at 03:00 UTC


170200Z 1703/1803 16006KT 9999 SCT020 SCT035 TX14/1714Z TN03/1803Z



MET'MAP, your aeronautical weather chart ! - Copyright ORBIFLY December 2007 - Disclaimer

ORBIFLY MET'MAP TEAM :

Programming & Development : Alexandra Zaïnal
Concept & original design : Baudouin d'Aumeries
Assistance for programming : Marc-Olivier Méhu
Technical & hardware support : Manuel Goepfert

Contact : metmap@orbifly.com




SOURCES & CREDITS :

   NOAA